createdAt,value
2022-08-11T00:01:56.642Z,50.02
2022-08-11T00:04:26.961Z,51.50
2022-08-11T00:06:54.265Z,50.32
2022-08-11T00:09:24.219Z,50.60
2022-08-11T00:11:58.497Z,52.49
2022-08-11T00:14:37.009Z,53.07
2022-08-11T00:17:07.857Z,52.68
2022-08-11T00:20:14.779Z,50.34
2022-08-11T00:22:24.264Z,51.17
2022-08-11T00:24:54.764Z,52.30
2022-08-11T00:27:34.564Z,54.45
2022-08-11T00:30:02.500Z,52.92
2022-08-11T00:32:30.623Z,52.29
2022-08-11T00:35:52.446Z,51.77
2022-08-11T00:37:52.392Z,53.87
2022-08-11T00:40:36.747Z,53.67
2022-08-11T00:43:22.413Z,55.36
2022-08-11T00:46:12.150Z,56.10
2022-08-11T00:49:11.898Z,56.00
2022-08-11T00:52:04.108Z,55.57
2022-08-11T00:54:33.043Z,54.13
2022-08-11T00:57:37.728Z,56.31
2022-08-11T01:00:13.506Z,53.66
2022-08-11T01:03:13.020Z,56.16
2022-08-11T01:06:12.017Z,55.21
2022-08-11T01:09:22.371Z,57.33
2022-08-11T01:11:55.945Z,53.83
2022-08-11T01:14:44.634Z,57.29
2022-08-11T01:17:29.805Z,57.04
2022-08-11T01:20:46.844Z,57.48
2022-08-11T01:23:30.348Z,57.07
2022-08-11T01:26:15.694Z,58.27
2022-08-11T01:29:18.154Z,58.98
2022-08-11T01:32:21.742Z,58.15
2022-08-11T01:35:34.958Z,58.89
2022-08-11T01:38:55.324Z,58.84
2022-08-11T01:42:05.478Z,60.14
2022-08-11T01:44:47.141Z,60.17
2022-08-11T01:47:53.428Z,60.83
2022-08-11T01:50:38.600Z,59.27
2022-08-11T01:53:28.645Z,60.98
2022-08-11T01:56:02.711Z,60.66
2022-08-11T01:58:44.022Z,60.25
2022-08-11T02:01:44.426Z,62.01
2022-08-11T02:04:17.176Z,57.42
2022-08-11T02:07:10.977Z,61.40
2022-08-11T02:09:58.467Z,61.92
2022-08-11T02:12:37.795Z,61.56
2022-08-11T02:15:36.662Z,62.89
2022-08-11T02:18:06.115Z,58.71
2022-08-11T02:21:06.266Z,59.61
2022-08-11T02:24:03.950Z,57.71
2022-08-11T02:26:39.674Z,58.96
2022-08-11T02:29:55.966Z,63.18
2022-08-11T02:32:50.493Z,58.45
2022-08-11T02:35:22.663Z,60.83
2022-08-11T02:38:09.034Z,61.65
2022-08-11T02:41:25.302Z,63.28
2022-08-11T02:44:44.554Z,64.08
2022-08-11T02:47:32.416Z,62.30
2022-08-11T02:50:17.577Z,63.20
2022-08-11T02:52:59.102Z,62.83
2022-08-11T02:56:14.001Z,64.73
2022-08-11T02:59:17.713Z,63.78
2022-08-11T03:01:53.173Z,61.75
2022-08-11T03:05:10.590Z,63.25
2022-08-11T03:07:40.046Z,60.79
2022-08-11T03:10:23.555Z,60.12
2022-08-11T03:13:34.959Z,60.79
2022-08-11T03:16:26.338Z,59.71
2022-08-11T03:19:30.274Z,63.19
2022-08-11T03:22:08.455Z,61.33
2022-08-11T03:25:15.049Z,62.30
2022-08-11T03:27:41.494Z,61.79
2022-08-11T03:30:18.179Z,62.35
2022-08-11T03:33:22.371Z,64.34
2022-08-11T03:36:10.577Z,65.69
2022-08-11T03:39:10.650Z,65.73
2022-08-11T03:42:01.755Z,61.50
2022-08-11T03:44:56.556Z,64.88
2022-08-11T03:47:31.713Z,64.17
2022-08-11T03:50:25.421Z,64.44
2022-08-11T03:52:58.587Z,66.07
2022-08-11T03:55:57.674Z,64.63
2022-08-11T03:59:02.173Z,66.08
2022-08-11T04:02:07.897Z,66.45
2022-08-11T04:04:35.605Z,62.66
2022-08-11T04:07:23.575Z,63.97
2022-08-11T04:09:56.194Z,64.76
2022-08-11T04:12:53.195Z,66.92
2022-08-11T04:16:10.789Z,66.20
2022-08-11T04:19:11.203Z,65.97
2022-08-11T04:21:46.411Z,65.71
2022-08-11T04:24:38.437Z,66.46
2022-08-11T04:27:36.932Z,67.52
2022-08-11T04:30:09.215Z,66.22
2022-08-11T04:32:53.824Z,67.43
2022-08-11T04:35:20.424Z,65.72
2022-08-11T04:38:14.101Z,68.27
2022-08-11T04:40:51.042Z,67.52
2022-08-11T04:44:05.780Z,67.35
2022-08-11T04:46:48.594Z,66.54
2022-08-11T04:50:17.082Z,68.52
2022-08-11T04:53:32.161Z,67.76
2022-08-11T04:56:38.002Z,68.70
2022-08-11T04:59:22.926Z,65.56
2022-08-11T05:02:26.655Z,68.38
2022-08-11T05:05:33.560Z,67.93
2022-08-11T05:08:24.114Z,68.48
2022-08-11T05:11:12.322Z,65.95
2022-08-11T05:14:04.633Z,65.80
2022-08-11T05:17:05.097Z,65.27
2022-08-11T05:19:50.575Z,63.54
2022-08-11T05:22:38.017Z,65.59
2022-08-11T05:26:44.110Z,63.41
2022-08-11T05:28:30.961Z,63.29
2022-08-11T05:31:19.577Z,63.47
2022-08-11T05:34:06.946Z,62.61
2022-08-11T05:36:50.918Z,61.69
2022-08-11T05:39:45.275Z,59.39
2022-08-11T05:42:31.502Z,59.37
2022-08-11T05:45:22.962Z,57.98
2022-08-11T05:48:08.910Z,57.15
2022-08-11T05:50:54.490Z,55.46
2022-08-11T05:53:46.344Z,53.98
2022-08-11T05:56:19.982Z,51.58
2022-08-11T05:58:54.882Z,50.19
2022-08-11T06:01:33.205Z,48.49
2022-08-11T06:04:15.801Z,47.79
2022-08-11T06:07:00.858Z,45.46
2022-08-11T06:09:44.556Z,43.84
2022-08-11T06:12:21.531Z,41.76
2022-08-11T06:14:51.318Z,42.89
2022-08-11T06:17:39.140Z,40.40
2022-08-11T06:20:11.832Z,41.62
2022-08-11T06:22:39.862Z,41.01
2022-08-11T06:25:08.980Z,38.60
2022-08-11T06:27:38.215Z,38.22
2022-08-11T06:30:13.436Z,38.30
2022-08-11T06:32:47.021Z,36.75
2022-08-11T06:35:46.144Z,36.79
2022-08-11T06:38:20.608Z,36.86
2022-08-11T06:41:32.211Z,35.47
2022-08-11T06:44:07.915Z,34.17
2022-08-11T06:46:39.046Z,35.96
2022-08-11T06:49:06.958Z,34.65
2022-08-11T06:51:38.429Z,34.88
2022-08-11T06:54:12.644Z,32.47
2022-08-11T06:57:29.000Z,34.73
2022-08-11T07:00:07.951Z,30.58
2022-08-11T07:03:01.411Z,30.39
2022-08-11T07:05:46.004Z,30.31
2022-08-11T07:08:50.442Z,29.39
2022-08-11T07:12:07.522Z,30.55
2022-08-11T07:14:59.934Z,31.56
2022-08-11T07:17:30.524Z,30.21
2022-08-11T07:20:18.163Z,27.89
2022-08-11T07:23:12.332Z,27.33
2022-08-11T07:25:58.915Z,26.32
2022-08-11T07:28:46.762Z,27.17
2022-08-11T07:31:37.194Z,26.54
2022-08-11T07:34:28.109Z,27.91
2022-08-11T07:36:57.002Z,26.64
2022-08-11T07:39:28.600Z,27.07
2022-08-11T07:41:58.833Z,27.26
2022-08-11T07:44:34.252Z,25.85
2022-08-11T07:47:20.998Z,25.41
2022-08-11T07:50:08.936Z,26.53
2022-08-11T07:52:37.995Z,26.26
2022-08-11T07:55:14.029Z,26.28
2022-08-11T07:58:15.325Z,26.19
2022-08-11T08:01:21.468Z,26.85
2022-08-11T08:04:07.827Z,25.38
2022-08-11T08:06:54.212Z,26.15
2022-08-11T08:09:40.720Z,26.92
2022-08-11T08:12:27.987Z,24.66
2022-08-11T08:15:14.886Z,26.31
2022-08-11T08:18:09.162Z,23.91
2022-08-11T08:20:50.572Z,25.19
2022-08-11T08:23:33.744Z,26.52
2022-08-11T08:26:04.529Z,24.65
2022-08-11T08:28:32.841Z,23.80
2022-08-11T08:31:00.276Z,24.71
2022-08-11T08:33:29.248Z,25.04
2022-08-11T08:36:16.981Z,23.20
2022-08-11T08:38:53.077Z,24.00
2022-08-11T08:41:27.805Z,24.62
2022-08-11T08:44:05.884Z,23.47
2022-08-11T08:46:46.152Z,23.78
2022-08-11T08:49:18.747Z,24.26
2022-08-11T08:51:58.638Z,23.66
2022-08-11T08:54:37.188Z,23.87
2022-08-11T08:57:06.844Z,24.80
2022-08-11T08:59:48.813Z,24.40
2022-08-11T09:02:34.872Z,25.03
2022-08-11T09:05:04.327Z,24.97
2022-08-11T09:07:39.809Z,24.12
2022-08-11T09:10:08.720Z,23.54
2022-08-11T09:12:39.250Z,23.03
2022-08-11T09:15:09.164Z,24.17
2022-08-11T09:17:41.181Z,24.58
2022-08-11T09:20:12.418Z,24.00
2022-08-11T09:26:08.960Z,23.96
2022-08-11T09:28:36.876Z,23.03
2022-08-11T09:31:06.176Z,22.87
2022-08-11T09:33:33.415Z,23.82
2022-08-11T09:36:20.817Z,24.16
2022-08-11T09:39:06.739Z,23.43
2022-08-11T09:42:01.649Z,23.34
2022-08-11T09:44:40.688Z,23.08
2022-08-11T09:47:13.296Z,23.49
2022-08-11T09:49:40.218Z,23.00
2022-08-11T09:52:09.624Z,22.58
2022-08-11T09:54:37.114Z,23.53
2022-08-11T09:57:23.660Z,23.25
2022-08-11T09:59:52.591Z,22.17
2022-08-11T10:02:50.456Z,22.20
2022-08-11T10:05:39.371Z,22.36
2022-08-11T10:08:09.228Z,23.35
2022-08-11T10:10:38.261Z,22.96
2022-08-11T10:14:04.933Z,22.99
2022-08-11T10:15:59.790Z,23.46
2022-08-11T10:18:49.314Z,23.51
2022-08-11T10:21:43.931Z,22.92
2022-08-11T10:24:30.409Z,22.51
2022-08-11T10:27:03.330Z,22.72
2022-08-11T10:29:59.755Z,22.25
2022-08-11T10:32:58.050Z,22.25
2022-08-11T10:35:26.676Z,23.00
2022-08-11T10:38:06.518Z,23.55
2022-08-11T10:40:37.265Z,23.88
2022-08-11T10:43:07.094Z,23.04
2022-08-11T10:45:54.976Z,22.36
2022-08-11T10:48:25.219Z,23.54
2022-08-11T10:51:11.781Z,22.32
2022-08-11T10:54:03.690Z,22.54
2022-08-11T10:56:53.548Z,22.30
2022-08-11T10:59:22.150Z,22.36
2022-08-11T11:01:50.236Z,22.19
2022-08-11T11:04:54.904Z,21.36
2022-08-11T11:07:27.066Z,20.88
2022-08-11T11:10:01.688Z,21.93
2022-08-11T11:13:02.533Z,21.75
2022-08-11T11:15:49.857Z,22.27
2022-08-11T11:18:23.985Z,21.67
2022-08-11T11:20:59.611Z,21.46
2022-08-11T11:23:39.051Z,22.07
2022-08-11T11:26:38.631Z,21.43
2022-08-11T11:29:20.220Z,21.94
2022-08-11T11:31:56.885Z,22.99
2022-08-11T11:34:53.596Z,21.80
2022-08-11T11:37:27.586Z,22.59
2022-08-11T11:39:55.091Z,21.96
2022-08-11T11:42:22.629Z,22.19
2022-08-11T11:44:52.189Z,22.97
2022-08-11T11:47:23.038Z,22.46
2022-08-11T11:49:50.641Z,22.08
2022-08-11T11:52:20.256Z,22.09
2022-08-11T11:57:58.672Z,21.96
2022-08-11T12:00:45.038Z,22.36
2022-08-11T12:03:12.781Z,21.72
2022-08-11T12:05:43.451Z,21.58
2022-08-11T12:08:16.408Z,21.28
2022-08-11T12:10:46.710Z,21.39
2022-08-11T12:13:32.977Z,21.13
2022-08-11T12:16:33.498Z,21.67
2022-08-11T12:18:54.322Z,22.18
2022-08-11T12:21:21.616Z,21.64
2022-08-11T12:24:07.551Z,21.97
2022-08-11T12:26:54.422Z,21.47
2022-08-11T12:29:41.161Z,20.65
2022-08-11T12:32:11.184Z,21.45
2022-08-11T12:34:37.897Z,21.52
2022-08-11T12:37:10.817Z,22.13
2022-08-11T12:40:17.187Z,21.21
2022-08-11T12:43:22.110Z,21.53
2022-08-11T12:45:58.256Z,21.16
2022-08-11T12:48:59.345Z,21.97
2022-08-11T12:52:12.925Z,21.36
2022-08-11T12:54:56.400Z,21.70
2022-08-11T12:58:10.788Z,21.31
2022-08-11T13:00:56.351Z,21.41
2022-08-11T13:03:42.653Z,21.29
2022-08-11T13:06:09.967Z,20.51
2022-08-11T13:08:39.329Z,20.91
2022-08-11T13:11:54.513Z,20.88
2022-08-11T13:14:15.338Z,20.46
2022-08-11T13:17:02.773Z,20.02
2022-08-11T13:19:30.929Z,20.83
2022-08-11T13:21:57.908Z,20.86
2022-08-11T13:24:24.851Z,20.83
2022-08-11T13:26:51.976Z,20.68
2022-08-11T13:29:20.787Z,20.77
2022-08-11T13:31:48.529Z,20.64
2022-08-11T13:34:17.102Z,21.21
2022-08-11T13:36:44.885Z,20.13
2022-08-11T13:39:12.519Z,20.79
2022-08-11T13:41:44.044Z,20.17
2022-08-11T13:44:15.920Z,19.98
2022-08-11T13:46:46.711Z,20.02
2022-08-11T13:49:17.499Z,20.49
2022-08-11T13:51:44.557Z,20.42
2022-08-11T13:54:18.861Z,20.52
2022-08-11T13:56:48.428Z,19.90
2022-08-11T13:59:20.202Z,20.47
2022-08-11T14:02:20.533Z,19.56
2022-08-11T14:05:16.820Z,20.62
2022-08-11T14:07:49.691Z,19.95
2022-08-11T14:10:18.925Z,21.08
2022-08-11T14:13:12.313Z,20.45
2022-08-11T14:15:42.184Z,20.13
2022-08-11T14:18:29.924Z,20.76
2022-08-11T14:21:18.678Z,20.63
2022-08-11T14:23:59.327Z,20.50
2022-08-11T14:26:31.209Z,20.78
2022-08-11T14:29:04.971Z,20.14
2022-08-11T14:31:33.720Z,20.05
2022-08-11T14:34:12.535Z,20.07
2022-08-11T14:36:42.172Z,20.49
2022-08-11T14:39:12.884Z,21.22
2022-08-11T14:42:10.277Z,21.09
2022-08-11T14:45:01.459Z,20.80
2022-08-11T14:47:31.668Z,20.60
2022-08-11T14:50:09.773Z,20.64
2022-08-11T14:52:43.371Z,20.81
2022-08-11T14:55:30.937Z,20.32
2022-08-11T14:57:58.377Z,19.93
2022-08-11T15:00:25.614Z,20.18
2022-08-11T15:03:12.909Z,19.58
2022-08-11T15:05:56.582Z,19.58
2022-08-11T15:08:51.545Z,19.82
2022-08-11T15:11:41.077Z,19.88
2022-08-11T15:14:09.829Z,19.34
2022-08-11T15:17:03.437Z,19.61
2022-08-11T15:19:40.353Z,19.55
2022-08-11T15:22:28.818Z,20.13
2022-08-11T15:24:58.140Z,19.59
2022-08-11T15:27:45.061Z,20.24
2022-08-11T15:30:33.165Z,19.37
2022-08-11T15:36:27.574Z,19.43
2022-08-11T15:39:20.589Z,18.61
2022-08-11T15:42:30.618Z,18.52
2022-08-11T15:45:19.042Z,19.06
2022-08-11T15:48:05.064Z,19.65
2022-08-11T15:50:38.087Z,19.76
2022-08-11T15:53:11.950Z,19.68
2022-08-11T15:55:39.373Z,19.86
2022-08-11T15:58:28.180Z,19.61
2022-08-11T16:01:15.563Z,19.94
2022-08-11T16:04:14.434Z,19.79
2022-08-11T16:06:50.944Z,20.31
2022-08-11T16:09:54.047Z,20.18
2022-08-11T16:12:41.597Z,20.72
2022-08-11T16:15:29.172Z,20.78
2022-08-11T16:18:05.132Z,20.77
2022-08-11T16:20:33.628Z,20.82
2022-08-11T16:23:03.877Z,20.63
2022-08-11T16:27:05.453Z,20.84
2022-08-11T16:28:23.192Z,20.55
2022-08-11T16:30:50.737Z,20.63
2022-08-11T16:33:49.176Z,20.92
2022-08-11T16:36:27.998Z,20.70
2022-08-11T16:38:56.840Z,20.53
2022-08-11T16:41:44.255Z,21.23
2022-08-11T16:44:37.436Z,21.46
2022-08-11T16:47:12.056Z,21.71
2022-08-11T16:49:44.244Z,21.88
2022-08-11T16:52:20.906Z,21.77
2022-08-11T16:54:47.832Z,21.82
2022-08-11T16:57:53.986Z,21.83
2022-08-11T17:00:20.699Z,22.10
2022-08-11T17:03:09.082Z,22.68
2022-08-11T17:05:57.081Z,22.81
2022-08-11T17:08:56.946Z,23.04
2022-08-11T17:11:46.196Z,22.99
2022-08-11T17:14:35.204Z,23.34
2022-08-11T17:17:06.230Z,22.94
2022-08-11T17:20:39.956Z,22.84
2022-08-11T17:22:45.785Z,22.92
2022-08-11T17:25:13.589Z,23.03
2022-08-11T17:27:43.266Z,23.51
2022-08-11T17:30:10.695Z,23.95
2022-08-11T17:33:00.670Z,23.54
2022-08-11T17:35:38.606Z,23.90
2022-08-11T17:38:22.761Z,23.75
2022-08-11T17:41:18.566Z,24.24
2022-08-11T17:44:09.224Z,23.77
2022-08-11T17:46:57.893Z,24.26
2022-08-11T17:49:28.280Z,24.48
2022-08-11T17:52:13.434Z,24.20
2022-08-11T17:55:00.193Z,24.95
2022-08-11T17:57:48.703Z,24.70
2022-08-11T18:00:16.869Z,24.69
2022-08-11T18:03:03.837Z,24.71
2022-08-11T18:05:34.032Z,24.79
2022-08-11T18:08:23.881Z,24.57
2022-08-11T18:11:10.765Z,24.80
2022-08-11T18:13:57.117Z,24.68
2022-08-11T18:16:42.904Z,25.00
2022-08-11T18:19:30.740Z,25.42
2022-08-11T18:22:32.065Z,25.28
2022-08-11T18:25:21.722Z,25.47
2022-08-11T18:28:11.335Z,25.05
2022-08-11T18:31:03.846Z,25.05
2022-08-11T18:34:08.372Z,25.49
2022-08-11T18:37:04.635Z,25.70
2022-08-11T18:39:56.484Z,25.66
2022-08-11T18:42:44.246Z,25.82
2022-08-11T18:45:43.857Z,25.79
2022-08-11T18:48:37.251Z,26.05
2022-08-11T18:51:31.698Z,26.15
2022-08-11T18:54:27.676Z,26.64
2022-08-11T18:57:16.443Z,26.28
2022-08-11T19:00:04.274Z,26.40
2022-08-11T19:02:51.198Z,26.76
2022-08-11T19:06:06.089Z,26.49
2022-08-11T19:08:50.097Z,27.10
2022-08-11T19:11:42.592Z,26.95
2022-08-11T19:14:31.586Z,26.89
2022-08-11T19:17:45.192Z,27.77
2022-08-11T19:20:26.795Z,27.81
2022-08-11T19:23:15.055Z,27.85
2022-08-11T19:26:02.000Z,27.58
2022-08-11T19:28:48.526Z,28.48
2022-08-11T19:31:34.392Z,27.96
2022-08-11T19:34:20.876Z,27.95
2022-08-11T19:37:06.883Z,28.15
2022-08-11T19:39:53.709Z,28.63
2022-08-11T19:42:40.200Z,28.41
2022-08-11T19:45:26.169Z,28.79
2022-08-11T19:48:31.192Z,28.77
2022-08-11T19:51:18.153Z,29.31
2022-08-11T19:54:06.197Z,28.86
2022-08-11T19:56:52.418Z,29.32
2022-08-11T19:59:38.605Z,29.31
2022-08-11T20:02:24.537Z,29.59
2022-08-11T20:05:10.202Z,29.98
2022-08-11T20:07:56.088Z,30.02
2022-08-11T20:10:42.520Z,30.06
2022-08-11T20:13:29.954Z,30.94
2022-08-11T20:16:18.307Z,30.92
2022-08-11T20:19:05.444Z,31.29
2022-08-11T20:21:51.817Z,30.88
2022-08-11T20:24:39.174Z,31.35
2022-08-11T20:27:27.234Z,31.38
2022-08-11T20:30:14.607Z,30.54
2022-08-11T20:33:01.021Z,31.02
2022-08-11T20:35:48.034Z,31.86
2022-08-11T20:38:34.451Z,31.00
2022-08-11T20:41:21.845Z,30.44
2022-08-11T20:44:09.782Z,30.95
2022-08-11T20:46:59.764Z,32.33
2022-08-11T20:49:55.124Z,32.81
2022-08-11T20:52:47.205Z,32.55
2022-08-11T20:55:52.010Z,32.96
2022-08-11T21:01:47.066Z,35.43
2022-08-11T21:04:37.405Z,34.16
2022-08-11T21:07:41.460Z,34.75
2022-08-11T21:10:30.168Z,36.39
2022-08-11T21:13:26.197Z,36.19
2022-08-11T21:16:25.351Z,36.18
2022-08-11T21:19:15.768Z,36.89
2022-08-11T21:22:03.867Z,37.13
2022-08-11T21:24:51.570Z,36.96
2022-08-11T21:27:39.936Z,38.02
2022-08-11T21:30:26.027Z,38.36
2022-08-11T21:33:11.926Z,37.58
2022-08-11T21:35:57.427Z,38.58
2022-08-11T21:38:43.859Z,38.57
2022-08-11T21:41:29.754Z,38.33
2022-08-11T21:44:16.711Z,39.53
2022-08-11T21:47:04.144Z,39.45
2022-08-11T21:49:50.943Z,39.48
2022-08-11T21:52:36.395Z,39.57
2022-08-11T21:55:21.705Z,38.90
2022-08-11T21:58:07.686Z,40.23
2022-08-11T22:00:53.108Z,40.04
2022-08-11T22:03:49.324Z,40.67
2022-08-11T22:06:36.350Z,40.50
2022-08-11T22:09:22.306Z,41.38
2022-08-11T22:12:33.565Z,41.77
2022-08-11T22:15:13.154Z,41.23
2022-08-11T22:17:58.562Z,41.39
2022-08-11T22:20:46.136Z,41.18
2022-08-11T22:23:37.076Z,42.07
2022-08-11T22:26:22.891Z,41.06
2022-08-11T22:29:08.745Z,43.07
2022-08-11T22:31:55.288Z,42.32
2022-08-11T22:34:51.194Z,43.27
2022-08-11T22:37:40.621Z,43.40
2022-08-11T22:40:28.940Z,43.61
2022-08-11T22:43:14.291Z,42.79
2022-08-11T22:46:00.280Z,43.46
2022-08-11T22:48:48.891Z,44.62
2022-08-11T22:51:36.715Z,44.41
2022-08-11T22:54:23.691Z,43.68
2022-08-11T22:57:09.645Z,44.58
2022-08-11T22:59:56.256Z,44.18
2022-08-11T23:02:44.153Z,44.97
2022-08-11T23:05:30.101Z,44.74
2022-08-11T23:08:15.992Z,45.57
2022-08-11T23:11:02.444Z,45.75
2022-08-11T23:13:51.564Z,46.48
2022-08-11T23:16:37.896Z,45.51
2022-08-11T23:20:08.650Z,46.04
2022-08-11T23:22:49.506Z,45.82
2022-08-11T23:25:35.018Z,46.59
2022-08-11T23:28:20.955Z,47.25
2022-08-11T23:31:11.859Z,48.82
2022-08-11T23:34:00.783Z,49.17
2022-08-11T23:36:47.150Z,47.64
2022-08-11T23:39:34.338Z,47.96
2022-08-11T23:42:22.181Z,49.33
2022-08-11T23:45:09.886Z,49.60
2022-08-11T23:47:57.898Z,49.67
2022-08-11T23:50:43.778Z,48.33
2022-08-11T23:53:29.664Z,49.64
2022-08-11T23:56:14.813Z,48.61
2022-08-11T23:59:00.076Z,50.32
